createdAt,value
2023-01-15T00:02:07.300Z,7.40
2023-01-15T00:04:35.106Z,7.30
2023-01-15T00:07:01.713Z,7.30
2023-01-15T00:09:28.527Z,7.20
2023-01-15T00:11:55.191Z,7.20
2023-01-15T00:14:21.875Z,7.20
2023-01-15T00:16:52.442Z,7.20
2023-01-15T00:19:19.265Z,7.10
2023-01-15T00:21:45.944Z,7.10
2023-01-15T00:24:31.409Z,7.10
2023-01-15T00:27:16.475Z,7.10
2023-01-15T00:29:43.112Z,7.00
2023-01-15T00:32:09.802Z,7.00
2023-01-15T00:34:36.610Z,7.00
2023-01-15T00:37:03.760Z,6.90
2023-01-15T00:39:30.578Z,6.90
2023-01-15T00:41:57.225Z,6.80
2023-01-15T00:44:24.173Z,6.80
2023-01-15T00:46:50.953Z,6.70
2023-01-15T00:49:17.694Z,6.60
2023-01-15T00:51:44.287Z,6.50
2023-01-15T00:54:11.148Z,6.50
2023-01-15T00:56:37.772Z,6.40
2023-01-15T00:59:05.008Z,6.40
2023-01-15T01:01:31.927Z,6.30
2023-01-15T01:03:58.732Z,6.30
2023-01-15T01:06:25.369Z,6.30
2023-01-15T01:08:52.097Z,6.30
2023-01-15T01:11:26.073Z,6.40
2023-01-15T01:13:54.030Z,6.30
2023-01-15T01:16:25.775Z,6.30
2023-01-15T01:18:52.545Z,6.30
2023-01-15T01:21:19.080Z,6.30
2023-01-15T01:23:45.826Z,6.30
2023-01-15T01:26:13.916Z,6.30
2023-01-15T01:28:41.383Z,6.20
2023-01-15T01:31:08.977Z,6.30
2023-01-15T01:33:35.977Z,6.30
2023-01-15T01:36:02.733Z,6.30
2023-01-15T01:38:29.451Z,6.30
2023-01-15T01:40:56.017Z,6.30
2023-01-15T01:43:24.674Z,6.40
2023-01-15T01:45:51.227Z,6.30
2023-01-15T01:48:19.385Z,6.30
2023-01-15T01:50:46.316Z,6.30
2023-01-15T01:53:15.932Z,6.40
2023-01-15T01:55:42.597Z,6.30
2023-01-15T01:58:10.598Z,6.30
2023-01-15T02:00:38.485Z,6.30
2023-01-15T02:03:07.814Z,6.40
2023-01-15T02:05:37.574Z,6.40
2023-01-15T02:08:05.064Z,6.30
2023-01-15T02:10:31.812Z,6.40
2023-01-15T02:13:01.734Z,6.30
2023-01-15T02:15:38.566Z,6.30
2023-01-15T02:18:08.022Z,6.20
2023-01-15T02:20:39.680Z,6.30
2023-01-15T02:23:09.381Z,6.30
2023-01-15T02:25:54.874Z,6.30
2023-01-15T02:28:26.513Z,6.30
2023-01-15T02:30:56.747Z,6.20
2023-01-15T02:33:31.271Z,6.20
2023-01-15T02:36:00.957Z,6.20
2023-01-15T02:38:30.477Z,6.20
2023-01-15T02:40:59.465Z,6.20
2023-01-15T02:43:27.631Z,6.20
2023-01-15T02:45:58.359Z,6.20
2023-01-15T02:48:26.217Z,6.20
2023-01-15T02:50:55.371Z,6.20
2023-01-15T02:53:24.987Z,6.20
2023-01-15T02:55:54.050Z,6.20
2023-01-15T02:58:22.335Z,6.10
2023-01-15T03:00:49.797Z,6.20
2023-01-15T03:03:35.759Z,6.20
2023-01-15T03:06:10.783Z,6.20
2023-01-15T03:08:37.579Z,6.20
2023-01-15T03:11:08.619Z,6.20
2023-01-15T03:13:41.124Z,6.30
2023-01-15T03:16:26.706Z,6.30
2023-01-15T03:18:59.707Z,6.30
2023-01-15T03:21:39.940Z,6.30
2023-01-15T03:24:08.305Z,6.40
2023-01-15T03:26:35.022Z,6.50
2023-01-15T03:29:03.554Z,6.50
2023-01-15T03:31:30.215Z,6.50
2023-01-15T03:33:56.859Z,6.50
2023-01-15T03:36:23.484Z,6.50
2023-01-15T03:38:50.916Z,6.60
2023-01-15T03:41:17.704Z,6.60
2023-01-15T03:43:56.495Z,6.50
2023-01-15T03:46:31.746Z,6.60
2023-01-15T03:49:06.157Z,6.50
2023-01-15T03:51:40.665Z,6.60
2023-01-15T03:54:11.152Z,6.50
2023-01-15T03:56:55.680Z,6.50
2023-01-15T03:59:32.424Z,6.60
2023-01-15T04:01:59.742Z,6.50
2023-01-15T04:04:27.509Z,6.50
2023-01-15T04:06:55.389Z,6.50
2023-01-15T04:09:22.566Z,6.50
2023-01-15T04:11:49.144Z,6.40
2023-01-15T04:14:15.737Z,6.40
2023-01-15T04:16:42.404Z,6.40
2023-01-15T04:19:09.035Z,6.30
2023-01-15T04:21:35.645Z,6.30
2023-01-15T04:24:02.172Z,6.30
2023-01-15T04:26:28.749Z,6.30
2023-01-15T04:28:55.382Z,6.30
2023-01-15T04:31:21.998Z,6.30
2023-01-15T04:33:48.641Z,6.30
2023-01-15T04:36:15.238Z,6.30
2023-01-15T04:38:41.936Z,6.30
2023-01-15T04:41:27.796Z,6.30
2023-01-15T04:44:09.412Z,6.20
2023-01-15T04:46:40.780Z,6.20
2023-01-15T04:49:08.929Z,6.20
2023-01-15T04:51:35.574Z,6.20
2023-01-15T04:54:03.501Z,6.20
2023-01-15T04:56:30.159Z,6.20
2023-01-15T04:58:59.386Z,6.20
2023-01-15T05:01:26.065Z,6.30
2023-01-15T05:03:52.833Z,6.30
2023-01-15T05:06:19.626Z,6.40
2023-01-15T05:08:46.431Z,6.50
2023-01-15T05:11:13.081Z,6.50
2023-01-15T05:13:39.696Z,6.50
2023-01-15T05:16:12.682Z,6.40
2023-01-15T05:18:39.321Z,6.50
2023-01-15T05:21:05.952Z,6.40
2023-01-15T05:23:32.703Z,6.50
2023-01-15T05:26:02.549Z,6.40
2023-01-15T05:28:29.113Z,6.40
2023-01-15T05:30:55.717Z,6.40
2023-01-15T05:33:22.310Z,6.30
2023-01-15T05:35:48.890Z,6.30
2023-01-15T05:38:15.422Z,6.30
2023-01-15T05:40:42.075Z,6.30
2023-01-15T05:43:08.575Z,6.30
2023-01-15T05:45:36.162Z,6.30
2023-01-15T05:48:02.750Z,6.20
2023-01-15T05:50:29.376Z,6.20
2023-01-15T05:52:55.912Z,6.20
2023-01-15T05:55:22.457Z,6.20
2023-01-15T05:57:49.204Z,6.10
2023-01-15T06:00:16.091Z,6.10
2023-01-15T06:02:42.681Z,6.00
2023-01-15T06:05:09.548Z,6.00
2023-01-15T06:07:36.110Z,6.00
2023-01-15T06:10:02.743Z,6.00
2023-01-15T06:12:29.308Z,6.00
2023-01-15T06:14:55.861Z,6.00
2023-01-15T06:17:22.442Z,5.90
2023-01-15T06:19:49.102Z,5.90
2023-01-15T06:22:15.644Z,5.90
2023-01-15T06:24:45.351Z,5.90
2023-01-15T06:27:11.936Z,5.80
2023-01-15T06:29:38.569Z,5.70
2023-01-15T06:32:05.314Z,5.60
2023-01-15T06:34:32.011Z,5.40
2023-01-15T06:36:58.624Z,5.20
2023-01-15T06:39:25.275Z,5.20
2023-01-15T06:42:10.473Z,5.00
2023-01-15T06:44:55.584Z,4.90
2023-01-15T06:47:23.095Z,4.80
2023-01-15T06:49:55.410Z,4.70
2023-01-15T06:52:23.168Z,4.70
2023-01-15T06:54:49.861Z,4.70
2023-01-15T06:57:16.517Z,4.70
2023-01-15T06:59:43.182Z,4.70
2023-01-15T07:02:10.657Z,4.70
2023-01-15T07:04:37.399Z,4.70
2023-01-15T07:07:03.991Z,4.70
2023-01-15T07:09:30.691Z,4.80
2023-01-15T07:11:58.018Z,4.80
2023-01-15T07:14:25.909Z,4.80
2023-01-15T07:16:52.553Z,4.90
2023-01-15T07:19:19.589Z,4.90
2023-01-15T07:21:46.458Z,5.00
2023-01-15T07:24:13.329Z,5.00
2023-01-15T07:26:40.924Z,5.10
2023-01-15T07:29:07.696Z,5.10
2023-01-15T07:31:34.540Z,5.10
2023-01-15T07:34:01.206Z,5.10
2023-01-15T07:36:27.976Z,5.20
2023-01-15T07:38:54.812Z,5.30
2023-01-15T07:41:40.119Z,5.30
2023-01-15T07:44:28.252Z,5.40
2023-01-15T07:47:13.214Z,5.40
2023-01-15T07:49:51.228Z,5.40
2023-01-15T07:52:18.979Z,5.30
2023-01-15T07:54:46.568Z,5.30
2023-01-15T07:57:14.684Z,5.30
2023-01-15T07:59:41.291Z,5.30
2023-01-15T08:02:07.854Z,5.30
2023-01-15T08:04:34.542Z,5.30
2023-01-15T08:07:01.823Z,5.30
2023-01-15T08:09:28.708Z,5.30
2023-01-15T08:12:14.306Z,5.30
2023-01-15T08:14:59.451Z,5.40
2023-01-15T08:17:26.010Z,5.40
2023-01-15T08:19:52.585Z,5.40
2023-01-15T08:22:19.165Z,5.40
2023-01-15T08:24:45.738Z,5.50
2023-01-15T08:27:12.215Z,5.50
2023-01-15T08:29:38.771Z,5.50
2023-01-15T08:32:05.331Z,5.40
2023-01-15T08:34:31.991Z,5.40
2023-01-15T08:37:00.151Z,5.40
2023-01-15T08:39:27.795Z,5.40
2023-01-15T08:41:55.062Z,5.50
2023-01-15T08:44:21.792Z,5.50
2023-01-15T08:46:48.517Z,5.50
2023-01-15T08:49:15.246Z,5.60
2023-01-15T08:51:42.051Z,5.60
2023-01-15T08:56:34.013Z,5.70
2023-01-15T08:59:04.774Z,5.70
2023-01-15T09:01:31.464Z,5.70
2023-01-15T09:03:58.783Z,5.70
2023-01-15T09:06:25.802Z,5.80
2023-01-15T09:08:52.361Z,5.80
2023-01-15T09:11:18.968Z,5.80
2023-01-15T09:13:47.546Z,5.90
2023-01-15T09:16:14.185Z,5.90
2023-01-15T09:18:41.357Z,5.90
2023-01-15T09:21:07.958Z,6.00
2023-01-15T09:23:34.598Z,6.00
2023-01-15T09:26:01.985Z,6.00
2023-01-15T09:28:28.942Z,6.00
2023-01-15T09:30:55.630Z,6.00
2023-01-15T09:33:22.393Z,6.00
2023-01-15T09:35:49.048Z,6.10
2023-01-15T09:38:16.533Z,6.20
2023-01-15T09:40:49.154Z,6.20
2023-01-15T09:43:34.305Z,6.20
2023-01-15T09:46:00.976Z,6.20
2023-01-15T09:48:30.349Z,6.20
2023-01-15T09:51:03.274Z,6.20
2023-01-15T09:53:40.040Z,6.20
2023-01-15T09:56:11.130Z,6.20
2023-01-15T09:58:40.151Z,6.20
2023-01-15T10:01:07.219Z,6.40
2023-01-15T10:03:45.166Z,7.40
2023-01-15T10:06:11.806Z,8.10
2023-01-15T10:08:40.876Z,8.80
2023-01-15T10:11:17.633Z,8.70
2023-01-15T10:13:48.810Z,8.20
2023-01-15T10:16:31.252Z,7.60
2023-01-15T10:18:58.626Z,7.10
2023-01-15T10:21:31.181Z,6.90
2023-01-15T10:24:09.941Z,6.80
2023-01-15T10:26:43.092Z,6.80
2023-01-15T10:29:15.998Z,6.80
2023-01-15T10:32:05.824Z,6.80
2023-01-15T10:34:32.312Z,6.80
2023-01-15T10:37:03.492Z,7.00
2023-01-15T10:39:49.472Z,7.40
2023-01-15T10:42:16.027Z,8.40
2023-01-15T10:44:52.588Z,9.00
2023-01-15T10:47:22.794Z,9.50
2023-01-15T10:49:50.205Z,9.60
2023-01-15T10:52:24.057Z,9.50
2023-01-15T10:54:57.123Z,9.30
2023-01-15T10:57:28.089Z,9.10
2023-01-15T10:59:58.770Z,9.10
2023-01-15T11:02:50.009Z,9.50
2023-01-15T11:05:19.516Z,9.20
2023-01-15T11:08:10.459Z,9.40
2023-01-15T11:10:34.381Z,9.00
2023-01-15T11:13:21.200Z,9.30
2023-01-15T11:16:07.405Z,8.90
2023-01-15T11:18:54.354Z,8.50
2023-01-15T11:21:22.057Z,8.70
2023-01-15T11:23:48.893Z,9.10
2023-01-15T11:26:21.061Z,8.80
2023-01-15T11:28:48.070Z,8.80
2023-01-15T11:31:15.322Z,9.00
2023-01-15T11:34:00.885Z,9.30
2023-01-15T11:36:28.330Z,8.90
2023-01-15T11:38:55.159Z,9.50
2023-01-15T11:41:47.595Z,9.30
2023-01-15T11:44:33.503Z,9.00
2023-01-15T11:47:19.177Z,9.30
2023-01-15T11:50:13.906Z,8.70
2023-01-15T11:52:58.853Z,8.30
2023-01-15T11:55:26.631Z,8.30
2023-01-15T11:57:53.659Z,8.10
2023-01-15T12:00:24.673Z,8.00
2023-01-15T12:02:53.420Z,7.80
2023-01-15T12:05:21.242Z,7.90
2023-01-15T12:07:49.443Z,7.90
2023-01-15T12:10:42.502Z,8.40
2023-01-15T12:13:28.526Z,8.50
2023-01-15T12:16:02.511Z,8.90
2023-01-15T12:18:38.458Z,8.70
2023-01-15T12:21:23.954Z,8.30
2023-01-15T12:24:00.252Z,8.30
2023-01-15T12:26:34.752Z,8.20
2023-01-15T12:29:06.584Z,8.40
2023-01-15T12:31:36.184Z,8.40
2023-01-15T12:34:06.177Z,8.70
2023-01-15T12:36:43.103Z,8.70
2023-01-15T12:39:15.781Z,8.60
2023-01-15T12:42:03.617Z,8.30
2023-01-15T12:45:00.956Z,8.10
2023-01-15T12:47:46.080Z,8.00
2023-01-15T12:50:22.356Z,8.10
2023-01-15T12:52:50.966Z,8.20
2023-01-15T12:55:26.903Z,8.30
2023-01-15T12:57:55.561Z,8.30
2023-01-15T13:00:34.361Z,8.60
2023-01-15T13:03:10.233Z,8.40
2023-01-15T13:05:41.109Z,8.80
2023-01-15T13:08:12.764Z,8.70
2023-01-15T13:10:40.701Z,9.10
2023-01-15T13:13:13.467Z,9.30
2023-01-15T13:15:41.269Z,9.40
2023-01-15T13:18:16.501Z,9.10
2023-01-15T13:20:54.948Z,8.50
2023-01-15T13:23:36.621Z,8.40
2023-01-15T13:26:11.882Z,8.30
2023-01-15T13:28:48.325Z,8.20
2023-01-15T13:31:27.323Z,8.20
2023-01-15T13:33:55.366Z,8.20
2023-01-15T13:36:23.784Z,8.10
2023-01-15T13:38:52.530Z,8.00
2023-01-15T13:41:41.673Z,8.10
2023-01-15T13:44:24.498Z,8.10
2023-01-15T13:47:01.973Z,8.20
2023-01-15T13:49:54.712Z,8.10
2023-01-15T13:52:37.157Z,8.00
2023-01-15T13:55:24.561Z,8.00
2023-01-15T13:57:51.107Z,7.90
2023-01-15T14:00:34.740Z,7.90
2023-01-15T14:03:02.882Z,7.90
2023-01-15T14:05:30.996Z,7.90
2023-01-15T14:07:58.240Z,7.90
2023-01-15T14:10:32.497Z,8.00
2023-01-15T14:13:22.485Z,8.00
2023-01-15T14:16:06.931Z,7.90
2023-01-15T14:18:51.868Z,7.80
2023-01-15T14:21:37.977Z,7.80
2023-01-15T14:24:16.812Z,7.80
2023-01-15T14:27:01.807Z,7.80
2023-01-15T14:29:29.136Z,7.70
2023-01-15T14:32:01.713Z,7.70
2023-01-15T14:34:30.180Z,7.70
2023-01-15T14:37:00.562Z,7.70
2023-01-15T14:39:27.143Z,7.70
2023-01-15T14:42:18.118Z,7.70
2023-01-15T14:44:45.176Z,7.70
2023-01-15T14:47:28.890Z,7.60
2023-01-15T14:50:18.649Z,7.70
2023-01-15T14:52:45.698Z,7.60
2023-01-15T14:55:12.701Z,7.60
2023-01-15T14:57:39.918Z,7.60
2023-01-15T15:00:07.518Z,7.70
2023-01-15T15:02:36.201Z,7.60
2023-01-15T15:05:03.431Z,7.60
2023-01-15T15:07:41.601Z,7.60
2023-01-15T15:10:21.047Z,7.60
2023-01-15T15:13:09.559Z,7.70
2023-01-15T15:15:46.283Z,7.80
2023-01-15T15:18:12.837Z,8.00
2023-01-15T15:20:39.600Z,8.00
2023-01-15T15:23:15.016Z,8.10
2023-01-15T15:25:42.017Z,7.90
2023-01-15T15:28:12.195Z,7.80
2023-01-15T15:30:43.466Z,7.70
2023-01-15T15:33:14.489Z,7.60
2023-01-15T15:35:44.546Z,7.60
2023-01-15T15:41:02.213Z,7.60
2023-01-15T15:44:06.828Z,7.60
2023-01-15T15:46:53.411Z,7.60
2023-01-15T15:49:20.740Z,7.50
2023-01-15T15:51:51.844Z,7.50
2023-01-15T15:54:25.029Z,7.50
2023-01-15T15:56:54.514Z,7.50
2023-01-15T15:59:28.815Z,7.50
2023-01-15T16:01:56.087Z,7.40
2023-01-15T16:04:24.183Z,7.40
2023-01-15T16:06:51.902Z,7.30
2023-01-15T16:09:22.496Z,7.30
2023-01-15T16:11:50.894Z,7.20
2023-01-15T16:14:18.247Z,7.10
2023-01-15T16:16:46.839Z,7.00
2023-01-15T16:19:22.868Z,6.90
2023-01-15T16:21:50.037Z,6.90
2023-01-15T16:24:26.101Z,6.90
2023-01-15T16:26:55.529Z,6.90
2023-01-15T16:29:24.702Z,7.00
2023-01-15T16:31:51.631Z,7.00
2023-01-15T16:34:19.265Z,7.00
2023-01-15T16:36:45.964Z,7.00
2023-01-15T16:39:31.842Z,7.00
2023-01-15T16:41:59.310Z,7.10
2023-01-15T16:44:30.294Z,7.00
2023-01-15T16:46:59.143Z,7.00
2023-01-15T16:49:27.079Z,7.00
2023-01-15T16:51:54.629Z,6.90
2023-01-15T16:54:30.002Z,6.90
2023-01-15T16:57:00.485Z,6.90
2023-01-15T16:59:27.018Z,6.90
2023-01-15T17:02:03.375Z,6.80
2023-01-15T17:04:31.642Z,6.90
2023-01-15T17:07:02.289Z,6.80
2023-01-15T17:09:30.431Z,6.90
2023-01-15T17:11:57.087Z,6.90
2023-01-15T17:14:24.861Z,6.90
2023-01-15T17:17:10.567Z,6.90
2023-01-15T17:19:37.116Z,6.90
2023-01-15T17:22:03.716Z,6.90
2023-01-15T17:24:30.217Z,6.90
2023-01-15T17:26:56.793Z,6.90
2023-01-15T17:29:23.362Z,6.90
2023-01-15T17:31:49.888Z,6.90
2023-01-15T17:34:23.284Z,6.90
2023-01-15T17:36:49.854Z,6.90
2023-01-15T17:39:16.955Z,7.00
2023-01-15T17:41:44.663Z,7.00
2023-01-15T17:44:14.498Z,7.00
2023-01-15T17:46:41.263Z,7.00
2023-01-15T17:49:07.847Z,7.00
2023-01-15T17:51:34.425Z,7.00
2023-01-15T17:54:01.024Z,7.00
2023-01-15T17:56:46.274Z,7.00
2023-01-15T17:59:31.399Z,7.00
2023-01-15T18:02:16.410Z,6.90
2023-01-15T18:05:04.948Z,6.90
2023-01-15T18:07:33.790Z,6.90
2023-01-15T18:10:00.571Z,6.90
2023-01-15T18:12:27.301Z,6.80
2023-01-15T18:14:53.846Z,6.70
2023-01-15T18:17:20.466Z,6.60
2023-01-15T18:19:47.030Z,6.50
2023-01-15T18:22:13.870Z,6.40
2023-01-15T18:24:40.374Z,6.30
2023-01-15T18:27:06.963Z,6.30
2023-01-15T18:29:38.467Z,6.30
2023-01-15T18:32:05.011Z,6.30
2023-01-15T18:34:31.604Z,6.20
2023-01-15T18:36:58.186Z,6.20
2023-01-15T18:39:24.743Z,6.20
2023-01-15T18:41:51.398Z,6.10
2023-01-15T18:44:38.214Z,6.00
2023-01-15T18:47:09.477Z,6.00
2023-01-15T18:49:36.249Z,6.00
2023-01-15T18:52:21.554Z,6.00
2023-01-15T18:54:48.199Z,5.90
2023-01-15T18:57:16.133Z,5.90
2023-01-15T18:59:44.092Z,5.80
2023-01-15T19:02:10.785Z,5.80
2023-01-15T19:04:38.193Z,5.80
2023-01-15T19:07:04.816Z,5.70
2023-01-15T19:09:31.567Z,5.80
2023-01-15T19:11:58.376Z,5.80
2023-01-15T19:14:43.469Z,5.80
2023-01-15T19:17:32.121Z,5.90
2023-01-15T19:19:58.663Z,5.90
2023-01-15T19:22:43.908Z,5.90
2023-01-15T19:25:11.780Z,5.90
2023-01-15T19:27:38.332Z,5.90
2023-01-15T19:30:06.884Z,5.90
2023-01-15T19:32:33.636Z,6.00
2023-01-15T19:35:00.268Z,6.00
2023-01-15T19:37:27.778Z,5.90
2023-01-15T19:39:54.595Z,5.90
2023-01-15T19:42:39.972Z,5.90
2023-01-15T19:45:25.680Z,5.80
2023-01-15T19:48:10.836Z,5.80
2023-01-15T19:50:38.832Z,5.90
2023-01-15T19:53:06.099Z,5.90
2023-01-15T19:55:33.124Z,5.90
2023-01-15T19:58:01.150Z,5.90
2023-01-15T20:00:28.009Z,6.00
2023-01-15T20:02:55.198Z,5.90
2023-01-15T20:05:22.223Z,5.90
2023-01-15T20:07:48.874Z,5.90
2023-01-15T20:10:16.041Z,5.90
2023-01-15T20:13:01.545Z,5.90
2023-01-15T20:15:29.018Z,5.80
2023-01-15T20:17:56.394Z,5.80
2023-01-15T20:20:23.357Z,5.80
2023-01-15T20:22:50.087Z,5.90
2023-01-15T20:25:16.707Z,5.90
2023-01-15T20:27:43.281Z,5.90
2023-01-15T20:30:16.879Z,5.90
2023-01-15T20:32:45.039Z,5.90
2023-01-15T20:35:13.245Z,6.00
2023-01-15T20:37:39.964Z,6.00
2023-01-15T20:40:07.319Z,6.10
2023-01-15T20:42:52.602Z,6.10
2023-01-15T20:45:19.189Z,6.00
2023-01-15T20:48:04.231Z,6.00
2023-01-15T20:50:33.507Z,6.00
2023-01-15T20:53:00.426Z,6.00
2023-01-15T20:55:54.671Z,6.00
2023-01-15T20:58:23.882Z,6.00
2023-01-15T21:00:50.706Z,6.00
2023-01-15T21:03:17.586Z,6.10
2023-01-15T21:05:44.245Z,6.20
2023-01-15T21:08:11.286Z,6.20
2023-01-15T21:10:38.311Z,6.20
2023-01-15T21:13:04.914Z,6.20
2023-01-15T21:15:31.507Z,6.20
2023-01-15T21:17:58.139Z,6.20
2023-01-15T21:20:24.718Z,6.20
2023-01-15T21:22:51.278Z,6.20
2023-01-15T21:25:17.850Z,6.20
2023-01-15T21:27:44.476Z,6.30
2023-01-15T21:30:11.333Z,6.30
2023-01-15T21:32:37.999Z,6.30
2023-01-15T21:35:04.664Z,6.30
2023-01-15T21:37:31.279Z,6.30
2023-01-15T21:39:57.880Z,6.30
2023-01-15T21:42:43.175Z,6.30
2023-01-15T21:45:11.335Z,6.30
2023-01-15T21:47:37.981Z,6.30
2023-01-15T21:50:05.225Z,6.40
2023-01-15T21:52:33.628Z,6.30
2023-01-15T21:55:00.269Z,6.30
2023-01-15T21:57:28.410Z,6.30
2023-01-15T21:59:54.984Z,6.30
2023-01-15T22:02:23.223Z,6.40
2023-01-15T22:04:50.302Z,6.40
2023-01-15T22:07:17.882Z,6.40
2023-01-15T22:09:44.571Z,6.40
2023-01-15T22:12:12.897Z,6.30
2023-01-15T22:14:39.432Z,6.30
2023-01-15T22:17:06.095Z,6.30
2023-01-15T22:19:33.049Z,6.30
2023-01-15T22:22:01.689Z,6.30
2023-01-15T22:24:29.283Z,6.30
2023-01-15T22:26:56.106Z,6.30
2023-01-15T22:29:26.584Z,6.30
2023-01-15T22:31:53.276Z,6.30
2023-01-15T22:34:21.348Z,6.40
2023-01-15T22:36:48.459Z,6.40
2023-01-15T22:39:15.618Z,6.40
2023-01-15T22:42:01.200Z,6.30
2023-01-15T22:44:27.815Z,6.30
2023-01-15T22:46:55.146Z,6.20
2023-01-15T22:49:21.975Z,6.20
2023-01-15T22:51:49.083Z,6.10
2023-01-15T22:54:16.356Z,6.10
2023-01-15T22:56:43.998Z,6.10
2023-01-15T22:59:11.510Z,6.10
2023-01-15T23:01:38.218Z,6.10
2023-01-15T23:04:07.837Z,6.10
2023-01-15T23:06:34.456Z,6.00
2023-01-15T23:09:01.778Z,6.00
2023-01-15T23:11:29.031Z,5.90
2023-01-15T23:13:56.255Z,5.80
2023-01-15T23:16:22.973Z,5.80
2023-01-15T23:18:49.829Z,5.70
2023-01-15T23:21:21.243Z,5.60
2023-01-15T23:23:47.867Z,5.60
2023-01-15T23:26:16.301Z,5.60
2023-01-15T23:28:43.325Z,5.60
2023-01-15T23:31:10.407Z,5.60
2023-01-15T23:33:37.315Z,5.60
2023-01-15T23:36:05.846Z,5.50
2023-01-15T23:38:32.544Z,5.50
2023-01-15T23:40:59.103Z,5.40
2023-01-15T23:43:44.359Z,5.40
2023-01-15T23:46:32.640Z,5.30
2023-01-15T23:49:03.876Z,5.30
2023-01-15T23:51:30.651Z,5.30
2023-01-15T23:53:57.662Z,5.30
2023-01-15T23:56:24.234Z,5.20
2023-01-15T23:58:51.384Z,5.20
